Time,TemperatureF,DewpointF,PressureIn,WindDirection,WindDirectionDegrees,WindSpeedMPH,WindSpeedGustMPH,Humidity,HourlyPrecipIn,Conditions,Clouds,dailyrainin,SoftwareType,DateUTC
2013-03-26 00:02:00,34.0,23.0,30.14,WNW,289,2.0,9.0,64,0.00,,,0.00,,2013-03-26 05:02:00,
2013-03-26 00:12:00,34.0,23.0,30.14,WNW,289,2.0,9.0,64,0.00,,,0.00,,2013-03-26 05:12:00,
2013-03-26 00:22:00,34.0,23.0,30.14,North,10,5.0,9.0,64,0.00,,,0.00,,2013-03-26 05:22:00,
2013-03-26 00:32:00,34.0,23.0,30.14,NNW,327,3.0,8.0,64,0.00,,,0.00,,2013-03-26 05:32:00,
2013-03-26 00:42:00,34.0,23.0,30.14,NNW,327,3.0,8.0,64,0.00,,,0.00,,2013-03-26 05:42:00,
2013-03-26 00:52:00,34.0,23.0,30.15,NW,317,5.0,9.0,65,0.00,,,0.00,,2013-03-26 05:52:00,
2013-03-26 01:02:00,34.0,24.0,30.15,NW,315,1.0,7.0,66,0.00,,,0.00,,2013-03-26 06:02:00,
2013-03-26 01:12:00,34.0,24.0,30.15,NW,315,1.0,7.0,66,0.00,,,0.00,,2013-03-26 06:12:00,
2013-03-26 01:22:00,34.0,24.0,30.15,NW,313,0.0,6.0,66,0.00,,,0.00,,2013-03-26 06:22:00,
2013-03-26 01:32:00,34.0,24.0,30.15,NW,317,3.0,7.0,66,0.00,,,0.00,,2013-03-26 06:32:00,
2013-03-26 01:42:00,34.0,24.0,30.15,NW,317,3.0,7.0,66,0.00,,,0.00,,2013-03-26 06:42:00,
2013-03-26 01:52:00,34.0,23.0,30.16,NNW,333,2.0,6.0,65,0.00,,,0.00,,2013-03-26 06:52:00,
2013-03-26 02:02:00,34.0,23.0,30.16,WNW,287,6.0,9.0,64,0.00,,,0.00,,2013-03-26 07:02:00,
2013-03-26 02:12:00,34.0,23.0,30.16,WNW,287,6.0,9.0,64,0.00,,,0.00,,2013-03-26 07:12:00,
2013-03-26 02:22:00,34.0,24.0,30.16,NW,306,4.0,8.0,66,0.00,,,0.00,,2013-03-26 07:22:00,
2013-03-26 02:33:00,34.0,24.0,30.15,NW,319,3.0,8.0,67,0.00,,,0.00,,2013-03-26 07:33:00,
2013-03-26 02:42:00,34.0,24.0,30.15,NW,319,3.0,8.0,67,0.00,,,0.00,,2013-03-26 07:42:00,
2013-03-26 02:53:00,34.0,24.0,30.15,NW,307,3.0,7.0,66,0.00,,,0.00,,2013-03-26 07:53:00,
2013-03-26 03:02:00,34.0,24.0,30.15,North,350,5.0,8.0,66,0.00,,,0.00,,2013-03-26 08:02:00,
2013-03-26 03:12:00,34.0,24.0,30.15,North,350,5.0,8.0,66,0.00,,,0.00,,2013-03-26 08:12:00,
2013-03-26 03:22:00,34.0,24.0,30.15,NW,308,3.0,9.0,67,0.00,,,0.00,,2013-03-26 08:22:00,
2013-03-26 03:32:00,33.0,24.0,30.15,NW,319,3.0,7.0,68,0.00,,,0.00,,2013-03-26 08:32:00,
2013-03-26 03:42:00,33.0,24.0,30.15,NW,319,3.0,7.0,68,0.00,,,0.00,,2013-03-26 08:42:00,
2013-03-26 03:52:00,33.0,24.0,30.16,WNW,285,3.0,10.0,69,0.00,,,0.00,,2013-03-26 08:52:00,
2013-03-26 04:02:00,33.0,24.0,30.16,North,355,4.0,11.0,70,0.00,,,0.00,,2013-03-26 09:02:00,
2013-03-26 04:12:00,33.0,24.0,30.16,North,355,4.0,11.0,70,0.00,,,0.00,,2013-03-26 09:12:00,
2013-03-26 04:22:00,33.0,25.0,30.16,NNW,333,3.0,7.0,71,0.00,,,0.00,,2013-03-26 09:22:00,
2013-03-26 04:33:00,32.0,24.0,30.16,NNW,331,2.0,7.0,71,0.00,,,0.00,,2013-03-26 09:33:00,
2013-03-26 04:42:00,32.0,24.0,30.16,NNW,331,2.0,7.0,71,0.00,,,0.00,,2013-03-26 09:42:00,
2013-03-26 04:52:00,32.0,24.0,30.16,NNW,336,3.0,9.0,72,0.00,,,0.00,,2013-03-26 09:52:00,
2013-03-26 05:02:00,32.0,24.0,30.17,West,273,3.0,9.0,71,0.00,,,0.00,,2013-03-26 10:02:00,
2013-03-26 05:12:00,32.0,24.0,30.17,West,273,3.0,9.0,71,0.00,,,0.00,,2013-03-26 10:12:00,
2013-03-26 05:22:00,31.0,23.0,30.17,NNW,327,5.0,12.0,71,0.00,,,0.00,,2013-03-26 10:22:00,
2013-03-26 05:32:00,31.0,23.0,30.17,NW,323,6.0,12.0,72,0.00,,,0.00,,2013-03-26 10:32:00,
2013-03-26 05:42:00,31.0,23.0,30.17,NW,323,6.0,12.0,72,0.00,,,0.00,,2013-03-26 10:42:00,
2013-03-26 05:53:00,31.0,23.0,30.18,NW,321,6.0,12.0,72,0.00,,,0.00,,2013-03-26 10:53:00,
2013-03-26 06:03:00,30.0,22.0,30.18,North,349,5.0,9.0,72,0.00,,,0.00,,2013-03-26 11:03:00,
2013-03-26 06:12:00,30.0,22.0,30.18,North,349,5.0,9.0,72,0.00,,,0.00,,2013-03-26 11:12:00,
2013-03-26 06:22:00,30.0,22.0,30.18,NNW,336,3.0,7.0,72,0.00,,,0.00,,2013-03-26 11:22:00,
2013-03-26 06:32:00,30.0,22.0,30.19,WNW,299,4.0,9.0,72,0.00,,,0.00,,2013-03-26 11:32:00,
2013-03-26 06:42:00,30.0,22.0,30.19,WNW,299,4.0,9.0,72,0.00,,,0.00,,2013-03-26 11:42:00,
2013-03-26 06:52:00,29.0,21.0,30.19,WNW,287,4.0,9.0,73,0.00,,,0.00,,2013-03-26 11:52:00,
2013-03-26 07:03:00,29.0,21.0,30.19,WNW,287,4.0,9.0,73,0.00,,,0.00,,2013-03-26 12:03:00,
2013-03-26 07:12:00,29.0,21.0,30.20,NNW,327,4.0,7.0,73,0.00,,,0.00,,2013-03-26 12:12:00,
2013-03-26 07:22:00,29.0,21.0,30.20,NNW,346,3.0,6.0,73,0.00,,,0.00,,2013-03-26 12:22:00,
2013-03-26 07:32:00,28.0,21.0,30.21,NW,317,3.0,6.0,74,0.00,,,0.00,,2013-03-26 12:32:00,
2013-03-26 07:42:00,28.0,21.0,30.21,NW,317,3.0,6.0,74,0.00,,,0.00,,2013-03-26 12:42:00,
2013-03-26 07:52:00,28.0,21.0,30.21,NW,314,3.0,8.0,74,0.00,,,0.00,,2013-03-26 12:52:00,
2013-03-26 08:03:00,28.0,21.0,30.22,NW,313,2.0,8.0,74,0.00,,,0.00,,2013-03-26 13:03:00,
2013-03-26 08:12:00,28.0,21.0,30.22,NW,313,2.0,8.0,74,0.00,,,0.00,,2013-03-26 13:12:00,
2013-03-26 08:22:00,29.0,22.0,30.22,NNW,333,4.0,7.0,74,0.00,,,0.00,,2013-03-26 13:22:00,
2013-03-26 08:32:00,30.0,22.0,30.23,NW,316,4.0,7.0,73,0.00,,,0.00,,2013-03-26 13:32:00,
2013-03-26 08:42:00,30.0,22.0,30.23,NW,316,4.0,7.0,73,0.00,,,0.00,,2013-03-26 13:42:00,
2013-03-26 08:52:00,30.0,22.0,30.23,NW,306,5.0,9.0,72,0.00,,,0.00,,2013-03-26 13:52:00,
2013-03-26 09:02:00,31.0,23.0,30.23,NW,321,5.0,10.0,71,0.00,,,0.00,,2013-03-26 14:02:00,
2013-03-26 09:11:00,31.0,23.0,30.23,NW,321,5.0,10.0,71,0.00,,,0.00,,2013-03-26 14:11:00,
2013-03-26 09:22:00,32.0,24.0,30.24,NNW,348,5.0,10.0,71,0.00,,,0.00,,2013-03-26 14:22:00,
2013-03-26 09:32:00,32.0,23.0,30.24,NNW,336,5.0,11.0,70,0.00,,,0.00,,2013-03-26 14:32:00,
2013-03-26 09:42:00,32.0,23.0,30.24,NNW,336,5.0,11.0,70,0.00,,,0.00,,2013-03-26 14:42:00,
2013-03-26 09:53:00,33.0,25.0,30.24,NNW,344,4.0,9.0,71,0.00,,,0.00,,2013-03-26 14:53:00,
2013-03-26 10:02:00,34.0,25.0,30.25,NNW,340,6.0,12.0,69,0.00,,,0.00,,2013-03-26 15:02:00,
2013-03-26 10:12:00,34.0,25.0,30.25,NNW,340,6.0,12.0,69,0.00,,,0.00,,2013-03-26 15:12:00,
2013-03-26 10:22:00,34.0,25.0,30.25,NW,315,6.0,13.0,68,0.00,,,0.00,,2013-03-26 15:22:00,
2013-03-26 10:33:00,36.0,26.0,30.25,NNW,327,4.0,8.0,67,0.00,,,0.00,,2013-03-26 15:33:00,
2013-03-26 10:42:00,36.0,26.0,30.25,NNW,327,4.0,8.0,67,0.00,,,0.00,,2013-03-26 15:42:00,
2013-03-26 10:53:00,36.0,26.0,30.25,NW,321,5.0,10.0,67,0.00,,,0.00,,2013-03-26 15:53:00,
2013-03-26 11:02:00,38.0,27.0,30.25,NNE,29,3.0,9.0,63,0.00,,,0.00,,2013-03-26 16:02:00,
2013-03-26 11:12:00,38.0,27.0,30.25,NNE,29,3.0,9.0,63,0.00,,,0.00,,2013-03-26 16:12:00,
2013-03-26 11:22:00,38.0,26.0,30.26,NNW,333,6.0,11.0,61,0.00,,,0.00,,2013-03-26 16:22:00,
2013-03-26 11:32:00,39.0,27.0,30.26,NNW,341,4.0,11.0,62,0.00,,,0.00,,2013-03-26 16:32:00,
2013-03-26 11:42:00,39.0,27.0,30.26,NNW,341,4.0,11.0,62,0.00,,,0.00,,2013-03-26 16:42:00,
2013-03-26 11:53:00,39.0,25.0,30.26,NNW,338,8.0,15.0,57,0.00,,,0.00,,2013-03-26 16:53:00,
2013-03-26 12:02:00,39.0,26.0,30.26,NNE,30,5.0,11.0,60,0.00,,,0.00,,2013-03-26 17:02:00,
2013-03-26 12:12:00,39.0,26.0,30.26,NNE,30,5.0,11.0,60,0.00,,,0.00,,2013-03-26 17:12:00,
2013-03-26 12:23:00,39.0,26.0,30.25,NW,318,5.0,11.0,59,0.00,,,0.00,,2013-03-26 17:23:00,
2013-03-26 12:32:00,40.0,27.0,30.25,NW,318,5.0,11.0,59,0.00,,,0.00,,2013-03-26 17:32:00,
2013-03-26 12:42:00,40.0,27.0,30.25,NW,318,5.0,11.0,59,0.00,,,0.00,,2013-03-26 17:42:00,
2013-03-26 12:53:00,40.0,25.0,30.25,NNW,339,7.0,14.0,54,0.00,,,0.00,,2013-03-26 17:53:00,
2013-03-26 13:02:00,40.0,26.0,30.24,North,355,6.0,12.0,58,0.00,,,0.00,,2013-03-26 18:02:00,
2013-03-26 13:12:00,40.0,26.0,30.24,North,355,6.0,12.0,58,0.00,,,0.00,,2013-03-26 18:12:00,
2013-03-26 13:23:00,40.0,25.0,30.25,NNW,333,5.0,12.0,54,0.00,,,0.00,,2013-03-26 18:23:00,
2013-03-26 13:33:00,41.0,25.0,30.24,NNW,341,4.0,16.0,53,0.00,,,0.00,,2013-03-26 18:33:00,
2013-03-26 13:42:00,41.0,25.0,30.24,NNW,341,4.0,16.0,53,0.00,,,0.00,,2013-03-26 18:42:00,
2013-03-26 13:53:00,41.0,26.0,30.24,West,277,4.0,17.0,55,0.00,,,0.00,,2013-03-26 18:53:00,
2013-03-26 14:02:00,41.0,23.0,30.24,North,355,6.0,12.0,49,0.00,,,0.00,,2013-03-26 19:02:00,
2013-03-26 14:12:00,41.0,23.0,30.24,North,355,6.0,12.0,49,0.00,,,0.00,,2013-03-26 19:12:00,
2013-03-26 14:22:00,42.0,25.0,30.24,NW,317,7.0,14.0,51,0.00,,,0.00,,2013-03-26 19:22:00,
2013-03-26 14:32:00,41.0,23.0,30.24,NW,324,8.0,14.0,49,0.00,,,0.00,,2013-03-26 19:32:00,
2013-03-26 14:42:00,41.0,23.0,30.24,NW,324,8.0,14.0,49,0.00,,,0.00,,2013-03-26 19:42:00,
2013-03-26 14:53:00,42.0,25.0,30.23,North,360,8.0,16.0,51,0.00,,,0.00,,2013-03-26 19:53:00,
2013-03-26 15:02:00,40.0,22.0,30.24,NNW,338,8.0,16.0,49,0.00,,,0.00,,2013-03-26 20:02:00,
2013-03-26 15:12:00,40.0,22.0,30.24,NNW,338,8.0,16.0,49,0.00,,,0.00,,2013-03-26 20:12:00,
2013-03-26 15:22:00,40.0,23.0,30.23,NNW,328,5.0,12.0,51,0.00,,,0.00,,2013-03-26 20:22:00,
2013-03-26 15:32:00,39.0,22.0,30.23,NNW,340,7.0,18.0,50,0.00,,,0.00,,2013-03-26 20:32:00,
2013-03-26 15:42:00,39.0,22.0,30.23,NNW,340,7.0,18.0,50,0.00,,,0.00,,2013-03-26 20:42:00,
2013-03-26 15:52:00,39.0,23.0,30.23,NNW,336,9.0,17.0,52,0.00,,,0.00,,2013-03-26 20:52:00,
2013-03-26 16:02:00,41.0,24.0,30.23,NNW,336,4.0,13.0,51,0.00,,,0.00,,2013-03-26 21:02:00,
2013-03-26 16:12:00,41.0,24.0,30.23,NNW,336,4.0,13.0,51,0.00,,,0.00,,2013-03-26 21:12:00,
2013-03-26 16:22:00,41.0,24.0,30.23,NNW,336,4.0,13.0,51,0.00,,,0.00,,2013-03-26 21:22:00,
2013-03-26 16:32:00,41.0,24.0,30.23,NNW,336,4.0,13.0,51,0.00,,,0.00,,2013-03-26 21:32:00,
2013-03-26 16:42:00,41.0,24.0,30.23,NNW,336,4.0,13.0,51,0.00,,,0.00,,2013-03-26 21:42:00,
2013-03-26 17:22:00,39.0,22.0,30.24,NW,325,3.0,8.0,51,0.00,,,0.00,,2013-03-26 22:22:00,
2013-03-26 17:33:00,39.0,22.0,30.24,NW,325,3.0,8.0,51,0.00,,,0.00,,2013-03-26 22:33:00,
2013-03-26 17:42:00,39.0,22.0,30.24,NW,325,3.0,8.0,51,0.00,,,0.00,,2013-03-26 22:42:00,
2013-03-26 18:22:00,39.0,22.0,30.25,North,355,6.0,10.0,50,0.00,,,0.00,,2013-03-26 23:22:00,
2013-03-26 18:32:00,39.0,22.0,30.25,NNW,327,4.0,11.0,50,0.00,,,0.00,,2013-03-26 23:32:00,
2013-03-26 18:43:00,39.0,22.0,30.25,NNW,327,4.0,11.0,50,0.00,,,0.00,,2013-03-26 23:43:00,
2013-03-26 18:53:00,38.0,22.0,30.26,North,360,4.0,7.0,52,0.00,,,0.00,,2013-03-26 23:53:00,
2013-03-26 19:02:00,38.0,21.0,30.26,NW,309,4.0,7.0,50,0.00,,,0.00,,2013-03-27 00:02:00,
2013-03-26 19:12:00,38.0,21.0,30.26,NW,309,4.0,7.0,50,0.00,,,0.00,,2013-03-27 00:12:00,
2013-03-26 19:22:00,38.0,22.0,30.26,NW,304,3.0,9.0,53,0.00,,,0.00,,2013-03-27 00:22:00,
2013-03-26 19:32:00,38.0,23.0,30.26,North,351,3.0,6.0,54,0.00,,,0.00,,2013-03-27 00:32:00,
2013-03-26 19:42:00,38.0,23.0,30.26,North,351,3.0,6.0,54,0.00,,,0.00,,2013-03-27 00:42:00,
2013-03-26 19:52:00,38.0,23.0,30.26,NNW,329,2.0,5.0,55,0.00,,,0.00,,2013-03-27 00:52:00,
2013-03-26 20:02:00,38.0,23.0,30.26,NNW,335,1.0,4.0,55,0.00,,,0.00,,2013-03-27 01:02:00,
2013-03-26 20:12:00,38.0,23.0,30.26,NNW,335,1.0,4.0,55,0.00,,,0.00,,2013-03-27 01:12:00,
2013-03-26 20:22:00,38.0,24.0,30.27,NW,322,4.0,6.0,56,0.00,,,0.00,,2013-03-27 01:22:00,
2013-03-26 20:33:00,37.0,23.0,30.27,NW,325,1.0,3.0,57,0.00,,,0.00,,2013-03-27 01:33:00,
2013-03-26 20:42:00,37.0,23.0,30.27,NW,325,1.0,3.0,57,0.00,,,0.00,,2013-03-27 01:42:00,
2013-03-26 20:53:00,37.0,23.0,30.27,NW,323,0.0,3.0,57,0.00,,,0.00,,2013-03-27 01:53:00,
2013-03-26 21:02:00,37.0,23.0,30.27,WNW,293,1.0,4.0,56,0.00,,,0.00,,2013-03-27 02:02:00,
2013-03-26 21:12:00,37.0,23.0,30.27,WNW,293,1.0,4.0,56,0.00,,,0.00,,2013-03-27 02:12:00,
2013-03-26 21:22:00,37.0,23.0,30.27,WNW,293,1.0,4.0,56,0.00,,,0.00,,2013-03-27 02:22:00,
2013-03-26 21:32:00,37.0,23.0,30.27,WNW,293,1.0,4.0,56,0.00,,,0.00,,2013-03-27 02:32:00,
2013-03-26 21:42:00,37.0,23.0,30.27,WNW,293,1.0,4.0,56,0.00,,,0.00,,2013-03-27 02:42:00,